Time;durP1;ratioP1;P1;durP2;ratioP2;P2;SDS_P1;SDS_P2;PMS_P1;PMS_P2;Temp;Humidity;BMP_temperature;BMP_pressure;BME280_temperature;BME280_humidity;BME280_pressure;Samples;Min_cycle;Max_cycle;Signal;HPM_P1;HPM_P2
2021/05/11 00:00:36;;;;;;;;;;;;;;;17.14;74.59;99582.73;3021486;78;20362;-58
2021/05/11 00:04:49;;;;;;;;;;;;;;;17.13;74.50;99573.83;3060943;76;20140;-58
2021/05/11 00:09:01;;;;;;;;;;;;;;;17.11;74.49;99569.16;3013539;77;20132;-59
2021/05/11 00:13:15;;;;;;;;;;;;;;;17.05;74.75;99566.37;3016786;78;20125;-58
2021/05/11 00:17:27;;;;;;;;;;;;;;;16.87;75.17;99565.38;3048567;77;20638;-59
2021/05/11 00:21:40;;;;;;;;;;;;;;;16.62;76.01;99558.41;3073823;76;20187;-57
2021/05/11 00:25:53;;;;;;;;;;;;;;;16.51;76.65;99554.33;3016453;78;20144;-61
2021/05/11 00:30:05;;;;;;;;;;;;;;;16.52;76.94;99553.30;3061882;77;20212;-59
2021/05/11 00:34:17;;;;;;;;;;;;;;;16.53;77.03;99552.81;3061359;77;20207;-58
2021/05/11 00:38:29;;;;;;;;;;;;;;;16.38;77.19;99552.27;3048545;77;20176;-59
2021/05/11 00:42:42;;;;;;;;;;;;;;;16.24;77.55;99553.06;3061424;77;20157;-59
2021/05/11 00:51:16;;;;;;;;;;;;;;;16.03;79.33;99543.84;3061199;77;20161;-59
2021/05/11 00:55:29;;;;;;;;;;;;;;;16.00;79.81;99546.88;3061545;77;20133;-59
2021/05/11 00:59:42;;;;;;;;;;;;;;;15.94;80.01;99540.91;3048278;77;20157;-58
2021/05/11 01:03:55;;;;;;;;;;;;;;;15.89;80.33;99541.44;3070003;77;20196;-58
2021/05/11 01:08:07;;;;;;;;;;;;;;;15.84;80.48;99531.20;2977602;79;20177;-59
2021/05/11 01:12:19;;;;;;;;;;;;;;;15.83;80.37;99533.56;3021013;78;20131;-58
2021/05/11 01:16:32;;;;;;;;;;;;;;;15.81;79.77;99528.03;3069828;77;20212;-58
2021/05/11 01:20:48;;;;;;;;;;;;;;;15.82;79.83;99525.19;3069899;77;20153;-58
2021/05/11 01:25:08;;;;;;;;;;;;;;;15.83;79.38;99520.67;3048080;77;20200;-59
2021/05/11 01:29:44;;;;;;;;;;;;;;;15.82;79.62;99517.15;3060765;77;20144;-58
2021/05/11 02:23:29;;;;;;;;;;;;;;;15.82;77.08;99458.16;3060766;77;20137;-59
2021/05/11 02:27:43;;;;;;;;;;;;;;;15.64;77.55;99454.45;3016100;78;20235;-58
2021/05/11 02:31:57;;;;;;;;;;;;;;;15.52;77.91;99464.73;3069581;77;20160;-58
2021/05/11 02:36:30;;;;;;;;;;;;;;;15.34;78.39;99457.52;3012388;77;20159;-59
2021/05/11 02:40:42;;;;;;;;;;;;;;;15.26;78.86;99452.52;3061217;77;20195;-58
2021/05/11 02:44:56;;;;;;;;;;;;;;;15.22;79.10;99451.70;3020457;78;20546;-59
2021/05/11 02:49:08;;;;;;;;;;;;;;;15.14;79.48;99455.29;3069461;77;20207;-59
2021/05/11 02:53:21;;;;;;;;;;;;;;;15.05;79.15;99452.31;3060797;77;20484;-59
2021/05/11 02:57:33;;;;;;;;;;;;;;;14.83;79.46;99458.25;3060943;77;20583;-58
2021/05/11 03:01:45;;;;;;;;;;;;;;;14.70;80.26;99455.28;3061282;77;20106;-59
2021/05/11 03:05:58;;;;;;;;;;;;;;;14.66;80.50;99454.79;3015871;78;20145;-58
2021/05/11 03:10:12;;;;;;;;;;;;;;;14.59;80.73;99452.48;3164553;74;20484;-59
2021/05/11 03:14:33;;;;;;;;;;;;;;;14.59;81.13;99459.17;3069757;76;20188;-59
2021/05/11 03:18:45;;;;;;;;;;;;;;;14.62;81.51;99459.31;3037999;77;20167;-59
2021/05/11 03:22:58;;;;;;;;;;;;;;;14.70;81.60;99460.13;3069540;77;20156;-59
2021/05/11 03:27:11;;;;;;;;;;;;;;;14.78;81.79;99461.97;3061115;77;20136;-58
2021/05/11 03:31:22;;;;;;;;;;;;;;;14.88;81.68;99463.09;3060679;77;20133;-58
2021/05/11 03:35:36;;;;;;;;;;;;;;;14.97;81.67;99457.20;3060193;76;20203;-58
2021/05/11 03:39:47;;;;;;;;;;;;;;;15.11;81.50;99449.77;3163785;74;20575;-59
2021/05/11 03:48:12;;;;;;;;;;;;;;;15.33;80.59;99440.59;3060629;77;20133;-58
2021/05/11 03:52:25;;;;;;;;;;;;;;;15.40;80.21;99430.82;3060750;77;20133;-59
2021/05/11 03:56:37;;;;;;;;;;;;;;;15.48;79.56;99427.77;3060772;77;20551;-59
2021/05/11 04:00:47;;;;;;;;;;;;;;;15.46;79.06;99417.22;3060520;77;20153;-59
2021/05/11 04:04:58;;;;;;;;;;;;;;;15.50;79.43;99417.70;3060169;77;20201;-59
2021/05/11 04:13:39;;;;;;;;;;;;;;;16.72;78.73;99425.75;3061306;77;20232;-60
2021/05/11 04:17:37;;;;;;;;;;;;;;;17.72;75.36;99418.44;3021450;78;20158;-60
2021/05/11 04:21:49;;;;;;;;;;;;;;;18.60;72.30;99423.39;3067533;77;20150;-60
2021/05/11 04:26:01;;;;;;;;;;;;;;;19.39;69.03;99417.16;3070460;77;20512;-61
2021/05/11 04:30:13;;;;;;;;;;;;;;;19.95;66.56;99416.49;3070388;77;20191;-61
2021/05/11 04:34:24;;;;;;;;;;;;;;;20.39;65.28;99418.70;3021555;78;20217;-60
2021/05/11 04:38:37;;;;;;;;;;;;;;;20.69;63.81;99414.12;3070459;77;20157;-60
2021/05/11 04:42:49;;;;;;;;;;;;;;;20.98;63.86;99414.13;3055680;76;20199;-60
2021/05/11 04:51:16;;;;;;;;;;;;;;;21.82;62.18;99398.81;3064792;77;20160;-61
2021/05/11 04:55:27;;;;;;;;;;;;;;;22.43;60.94;99395.52;3024652;78;20681;-60
2021/05/11 04:59:38;;;;;;;;;;;;;;;23.06;60.35;99394.85;3065132;76;20145;-61
2021/05/11 05:03:52;;;;;;;;;;;;;;;23.57;58.97;99393.17;3024952;78;20139;-61
2021/05/11 05:08:02;;;;;;;;;;;;;;;23.89;57.57;99390.98;2993234;78;20117;-61
2021/05/11 05:12:19;;;;;;;;;;;;;;;23.95;56.60;99385.11;3065645;77;20165;-61
2021/05/11 05:16:31;;;;;;;;;;;;;;;23.93;56.33;99389.95;3016224;79;20107;-61
2021/05/11 05:20:48;;;;;;;;;;;;;;;23.93;56.50;99388.59;3025334;77;20170;-61
2021/05/11 05:25:07;;;;;;;;;;;;;;;24.21;56.71;99389.81;3067822;76;20234;-61
2021/05/11 05:29:12;;;;;;;;;;;;;;;24.31;55.94;99378.34;3075436;77;20126;-61
2021/05/11 05:33:37;;;;;;;;;;;;;;;24.51;56.13;99375.20;3052484;77;20177;-61
2021/05/11 05:37:47;;;;;;;;;;;;;;;24.49;55.41;99369.19;3036354;77;20118;-61
2021/05/11 05:42:08;;;;;;;;;;;;;;;24.52;55.43;99367.34;3055839;76;20234;-61
2021/05/11 05:46:20;;;;;;;;;;;;;;;24.61;55.09;99367.27;3152466;74;20110;-61
2021/05/11 05:50:32;;;;;;;;;;;;;;;24.80;54.94;99368.48;3061312;77;20192;-62
2021/05/11 05:54:45;;;;;;;;;;;;;;;24.74;54.87;99364.80;3052668;77;20161;-62
2021/05/11 05:58:57;;;;;;;;;;;;;;;24.85;55.59;99357.70;3016610;79;20124;-61
2021/05/11 06:03:19;;;;;;;;;;;;;;;24.94;55.11;99356.22;3159335;74;20480;-61
2021/05/11 06:07:21;;;;;;;;;;;;;;;25.02;54.38;99347.39;2985322;78;20159;-61
2021/05/11 06:11:46;;;;;;;;;;;;;;;24.95;54.83;99355.15;3040779;76;20141;-62
2021/05/11 06:47:49;;;;;;;;;;;;;;;25.03;56.26;99328.09;2996373;77;20137;-61
2021/05/11 07:23:25;;;;;;;;;;;;;;;25.33;58.06;99309.80;3028681;76;20133;-61
2021/05/11 07:32:04;;;;;;;;;;;;;;;25.64;55.18;99296.70;3017066;79;20170;-61
2021/05/11 07:36:16;;;;;;;;;;;;;;;25.72;56.87;99290.82;3009764;77;20141;-61
2021/05/11 07:40:29;;;;;;;;;;;;;;;25.79;57.78;99286.04;2977815;78;20126;-61
2021/05/11 07:44:44;;;;;;;;;;;;;;;26.07;56.02;99275.23;3018137;77;20106;-61
2021/05/11 08:29:12;;;;;;;;;;;;;;;26.79;56.28;99274.66;2990215;77;20162;-61
2021/05/11 08:33:24;;;;;;;;;;;;;;;26.90;56.26;99268.78;2996191;77;20099;-61
2021/05/11 08:37:35;;;;;;;;;;;;;;;27.04;54.76;99272.45;3003128;79;20180;-61
2021/05/11 08:41:48;;;;;;;;;;;;;;;27.11;55.67;99273.05;2975145;79;20133;-61
2021/05/11 08:46:02;;;;;;;;;;;;;;;27.24;55.76;99270.44;2990022;79;20130;-61
2021/05/11 08:50:14;;;;;;;;;;;;;;;27.28;55.37;99263.89;3002848;79;20113;-60
2021/05/11 09:27:11;;;;;;;;;;;;;;;27.97;53.98;99271.72;3055505;76;20158;-61
2021/05/11 10:47:15;;;;;;;;;;;;;;;29.73;43.39;99223.16;3056132;76;20167;-62
2021/05/11 10:51:30;;;;;;;;;;;;;;;29.76;45.54;99222.06;3066843;76;20118;-61
2021/05/11 10:55:44;;;;;;;;;;;;;;;29.93;45.08;99220.91;3008582;77;20134;-61
2021/05/11 11:04:53;;;;;;;;;;;;;;;30.17;45.28;99210.13;3071092;76;20156;-60
2021/05/11 11:09:25;;;;;;;;;;;;;;;30.29;42.74;99208.41;3112668;74;20717;-63
2021/05/11 11:14:05;;;;;;;;;;;;;;;30.40;44.28;99202.84;3061643;76;20140;-62
2021/05/11 11:18:38;;;;;;;;;;;;;;;30.49;42.97;99198.41;3050874;77;20314;-62
2021/05/11 11:27:59;;;;;;;;;;;;;;;30.64;43.36;99179.09;3032585;77;20111;-61
2021/05/11 11:32:31;;;;;;;;;;;;;;;30.64;42.70;99174.97;3162291;74;20110;-62
2021/05/11 11:36:59;;;;;;;;;;;;;;;30.64;42.97;99174.97;3043408;76;20133;-61
2021/05/11 11:41:19;;;;;;;;;;;;;;;30.57;41.34;99167.60;2992784;79;20129;-61
2021/05/11 11:45:30;;;;;;;;;;;;;;;30.53;41.06;99165.17;3029820;77;20188;-62
2021/05/11 11:49:47;;;;;;;;;;;;;;;30.53;41.90;99146.51;2987727;77;21030;-61
2021/05/11 12:09:02;;;;;;;;;;;;;;;30.10;41.18;99140.25;3066378;76;20117;-60
2021/05/11 12:13:28;;;;;;;;;;;;;;;30.14;42.64;99137.20;2999719;78;20172;-61
2021/05/11 12:17:45;;;;;;;;;;;;;;;30.19;40.33;99137.16;3018038;79;20103;-61
2021/05/11 12:22:16;;;;;;;;;;;;;;;30.30;41.29;99119.55;3025187;78;20102;-61
2021/05/11 12:26:29;;;;;;;;;;;;;;;30.49;40.47;99115.54;3014283;77;20475;-61
2021/05/11 12:30:47;;;;;;;;;;;;;;;30.62;43.57;99114.08;3037030;77;20121;-61
2021/05/11 12:35:12;;;;;;;;;;;;;;;30.59;39.10;99106.97;3038039;76;20149;-61
2021/05/11 12:44:30;;;;;;;;;;;;;;;30.42;39.53;99112.31;3049275;77;20145;-61
2021/05/11 12:48:59;;;;;;;;;;;;;;;30.49;41.16;99109.25;3011821;79;20182;-61
2021/05/11 12:53:47;;;;;;;;;;;;;;;30.51;41.19;99102.92;2957684;79;20159;-62
2021/05/11 12:58:10;;;;;;;;;;;;;;;30.54;40.49;99098.22;3042369;77;20155;-60
2021/05/11 13:02:45;;;;;;;;;;;;;;;30.68;39.93;99086.61;3018203;79;20131;-60
2021/05/11 13:44:44;;;;;;;;;;;;;;;30.81;39.56;99068.64;2962674;79;20102;-61
2021/05/11 13:48:55;;;;;;;;;;;;;;;30.84;39.33;99072.17;3031391;78;20156;-61
2021/05/11 13:53:10;;;;;;;;;;;;;;;30.77;38.20;99076.09;3053934;77;20153;-61
2021/05/11 14:06:15;;;;;;;;;;;;;;;30.60;40.05;99068.82;3080494;77;20116;-63
2021/05/11 14:10:26;;;;;;;;;;;;;;;30.52;40.60;99067.52;3041382;77;20107;-60
2021/05/11 14:14:38;;;;;;;;;;;;;;;30.50;39.96;99068.36;3130642;75;20088;-62
2021/05/11 14:18:49;;;;;;;;;;;;;;;30.57;41.20;99060.60;3044116;77;20190;-61
2021/05/11 14:23:06;;;;;;;;;;;;;;;30.63;41.86;99062.20;3085089;77;20176;-61
2021/05/11 14:27:16;;;;;;;;;;;;;;;30.70;40.67;99051.47;3006236;79;20143;-60
2021/05/11 14:31:33;;;;;;;;;;;;;;;30.73;40.38;99049.51;3075705;77;20441;-60
2021/05/11 14:35:45;;;;;;;;;;;;;;;30.69;40.40;99042.41;3065473;76;20137;-62
2021/05/11 14:39:57;;;;;;;;;;;;;;;30.71;40.39;99040.75;3012540;78;20133;-60
2021/05/11 14:44:10;;;;;;;;;;;;;;;30.76;41.21;99039.31;3022676;77;20122;-60
2021/05/11 14:48:54;;;;;;;;;;;;;;;30.76;41.77;99037.95;2997279;77;20153;-61
2021/05/11 14:53:06;;;;;;;;;;;;;;;30.68;41.87;99042.71;2993905;79;20131;-61
2021/05/11 14:57:16;;;;;;;;;;;;;;;30.54;41.84;99036.50;3039276;77;20127;-60
2021/05/11 15:01:32;;;;;;;;;;;;;;;30.31;42.80;99038.08;3031029;78;20128;-61
2021/05/11 15:05:44;;;;;;;;;;;;;;;29.99;42.67;99033.94;3026348;78;20134;-61
2021/05/11 15:20:20;;;;;;;;;;;;;;;29.72;46.63;99032.47;2938247;80;20139;-59
2021/05/11 15:24:38;;;;;;;;;;;;;;;29.99;47.00;99030.63;3026692;78;20604;-61
2021/05/11 15:28:50;;;;;;;;;;;;;;;30.21;45.73;99021.16;3017328;79;20131;-61
2021/05/11 15:33:21;;;;;;;;;;;;;;;30.40;44.49;99025.93;3009237;78;20138;-60
2021/05/11 15:37:33;;;;;;;;;;;;;;;30.27;43.07;99029.62;3017295;79;20127;-61
2021/05/11 15:42:00;;;;;;;;;;;;;;;29.99;44.22;99025.15;3031070;77;20176;-62
2021/05/11 15:46:11;;;;;;;;;;;;;;;29.73;44.85;99021.23;2990039;79;20106;-62
2021/05/11 15:50:27;;;;;;;;;;;;;;;29.63;45.79;99022.66;3020859;77;20123;-61
2021/05/11 15:54:50;;;;;;;;;;;;;;;29.75;46.48;99014.08;3026436;78;20154;-61
2021/05/11 15:59:03;;;;;;;;;;;;;;;29.97;46.17;99005.97;2985370;78;20202;-61
2021/05/11 16:03:13;;;;;;;;;;;;;;;30.07;46.46;99005.93;3049888;77;20162;-62
2021/05/11 16:07:23;;;;;;;;;;;;;;;30.08;46.18;99012.25;3049128;76;20194;-60
2021/05/11 16:11:35;;;;;;;;;;;;;;;30.08;44.32;99006.77;3062135;76;20529;-61
2021/05/11 16:15:47;;;;;;;;;;;;;;;30.05;45.73;99002.09;3026093;78;20170;-60
2021/05/11 16:20:05;;;;;;;;;;;;;;;30.13;46.74;98994.37;2977128;79;20239;-60
2021/05/11 16:24:27;;;;;;;;;;;;;;;30.03;46.04;98995.28;2886066;80;20258;-62
2021/05/11 16:28:45;;;;;;;;;;;;;;;29.83;46.01;98990.73;3000964;77;20111;-61
2021/05/11 16:32:56;;;;;;;;;;;;;;;29.63;46.29;98988.41;3110876;74;20145;-59
2021/05/11 16:37:10;;;;;;;;;;;;;;;29.47;47.22;98991.25;3132677;76;20120;-61
2021/05/11 16:41:20;;;;;;;;;;;;;;;29.29;47.29;98987.23;3075282;77;20179;-61
2021/05/11 16:45:31;;;;;;;;;;;;;;;29.16;47.61;98991.41;3026403;78;20454;-61
2021/05/11 16:49:43;;;;;;;;;;;;;;;29.01;48.42;98990.94;3022784;78;20134;-62
2021/05/11 16:53:54;;;;;;;;;;;;;;;28.86;49.05;98993.16;2984604;79;20165;-63
2021/05/11 16:58:05;;;;;;;;;;;;;;;28.66;50.03;98991.30;3052856;77;20141;-62
2021/05/11 17:02:17;;;;;;;;;;;;;;;28.50;51.29;99000.09;3030872;78;20104;-61
2021/05/11 17:06:29;;;;;;;;;;;;;;;28.33;51.09;98997.64;3019622;78;20176;-62
2021/05/11 17:10:41;;;;;;;;;;;;;;;28.03;50.71;99002.02;3052614;77;20157;-62
2021/05/11 17:14:59;;;;;;;;;;;;;;;27.85;48.13;99004.73;3025753;78;20199;-65
2021/05/11 17:19:10;;;;;;;;;;;;;;;27.65;47.69;99004.98;3026209;78;20170;-61
2021/05/11 17:23:24;;;;;;;;;;;;;;;27.46;47.90;99008.18;3036927;77;20194;-61
2021/05/11 17:27:54;;;;;;;;;;;;;;;27.20;48.16;99014.94;3025928;78;20655;-61
2021/05/11 17:32:12;;;;;;;;;;;;;;;26.93;47.65;99014.56;3040905;77;20155;-59
2021/05/11 17:36:27;;;;;;;;;;;;;;;26.70;47.83;99017.13;3025928;78;20173;-61
2021/05/11 17:40:39;;;;;;;;;;;;;;;26.47;47.78;99016.98;3019354;77;20125;-62
2021/05/11 17:45:54;;;;;;;;;;;;;;;26.29;47.07;99013.58;2516514;91;20198;-60
2021/05/11 17:50:07;;;;;;;;;;;;;;;26.23;47.07;99011.91;2515994;91;20170;-61
2021/05/11 17:54:25;;;;;;;;;;;;;;;26.10;47.33;99013.95;2502805;91;20359;-60
2021/05/11 17:58:36;;;;;;;;;;;;;;;26.00;48.15;99019.33;2554642;89;20175;-60
2021/05/11 18:02:51;;;;;;;;;;;;;;;25.84;48.61;99031.97;2448282;93;20183;-61
2021/05/11 18:07:08;;;;;;;;;;;;;;;25.64;48.68;99029.88;2527391;89;20159;-60
2021/05/11 18:11:20;;;;;;;;;;;;;;;25.45;49.32;99035.64;2516044;91;20174;-60
2021/05/11 18:15:36;;;;;;;;;;;;;;;25.26;49.46;99035.68;2516398;91;20143;-61
2021/05/11 18:19:48;;;;;;;;;;;;;;;25.08;50.00;99037.12;2556760;89;20172;-62
2021/05/11 18:24:00;;;;;;;;;;;;;;;24.90;50.37;99034.14;2517032;90;20192;-62
2021/05/11 18:28:11;;;;;;;;;;;;;;;24.67;51.15;99033.26;2491451;91;20200;-60
2021/05/11 18:32:29;;;;;;;;;;;;;;;24.48;52.10;99035.96;2549870;89;20144;-61
2021/05/11 18:36:44;;;;;;;;;;;;;;;24.29;52.32;99037.58;2534493;90;20204;-61
2021/05/11 18:40:57;;;;;;;;;;;;;;;24.08;53.50;99037.23;2529701;89;20180;-61
2021/05/11 18:45:53;;;;;;;;;;;;;;;23.77;54.66;99050.23;3024728;78;20158;-60
2021/05/11 18:49:54;;;;;;;;;;;;;;;23.52;55.11;99057.38;2976160;80;20141;-61
2021/05/11 18:53:58;;;;;;;;;;;;;;;23.36;55.31;99059.78;2971409;79;20145;-61
2021/05/11 18:57:59;;;;;;;;;;;;;;;23.22;55.29;99066.50;3021498;78;20165;-61
2021/05/11 19:02:03;;;;;;;;;;;;;;;23.05;56.02;99069.14;3021698;78;20168;-61
2021/05/11 19:06:04;;;;;;;;;;;;;;;22.87;56.59;99071.44;3020408;78;20144;-61
2021/05/11 19:10:11;;;;;;;;;;;;;;;22.64;57.45;99075.29;2966533;80;20179;-61
2021/05/11 19:14:12;;;;;;;;;;;;;;;22.46;57.92;99081.59;2966839;80;20119;-61
2021/05/11 19:18:13;;;;;;;;;;;;;;;22.32;57.91;99085.05;2966703;80;20170;-61
2021/05/11 19:22:21;;;;;;;;;;;;;;;22.29;57.57;99081.97;2962664;80;20151;-60
2021/05/11 19:26:22;;;;;;;;;;;;;;;22.32;57.62;99080.98;2920406;81;20157;-60
2021/05/11 19:30:24;;;;;;;;;;;;;;;22.30;57.62;99089.88;2920043;81;20536;-61
2021/05/11 19:34:39;;;;;;;;;;;;;;;22.25;57.66;99084.34;2920348;81;20216;-62
2021/05/11 19:38:41;;;;;;;;;;;;;;;22.23;57.41;99093.23;2920881;81;20167;-62
2021/05/11 19:42:43;;;;;;;;;;;;;;;22.24;57.17;99089.45;2922518;81;20147;-61
2021/05/11 19:46:47;;;;;;;;;;;;;;;22.30;56.79;99098.00;2922853;81;20143;-61
2021/05/11 19:50:48;;;;;;;;;;;;;;;22.37;56.34;99091.94;2922479;81;20163;-61
2021/05/11 19:54:49;;;;;;;;;;;;;;;22.33;56.97;99092.11;2920190;81;20165;-61
2021/05/11 19:58:52;;;;;;;;;;;;;;;22.21;57.38;99096.70;2918985;81;20168;-62
2021/05/11 20:02:53;;;;;;;;;;;;;;;22.02;57.99;99098.62;2918901;81;20188;-61
2021/05/11 20:06:55;;;;;;;;;;;;;;;21.87;58.47;99101.22;2918258;81;20173;-61
2021/05/11 20:10:57;;;;;;;;;;;;;;;21.69;59.14;99095.33;2921502;81;20177;-61
2021/05/11 20:15:01;;;;;;;;;;;;;;;21.50;59.69;99101.24;2909071;80;20150;-61
2021/05/11 20:19:02;;;;;;;;;;;;;;;21.36;59.82;99092.47;2904746;82;20213;-62
2021/05/11 20:23:04;;;;;;;;;;;;;;;21.26;60.18;99093.84;2904743;82;20181;-61
2021/05/11 20:27:06;;;;;;;;;;;;;;;21.19;60.55;99097.12;2905078;80;20224;-62
2021/05/11 20:31:08;;;;;;;;;;;;;;;21.02;61.28;99096.89;2904894;82;20193;-61
2021/05/11 20:35:17;;;;;;;;;;;;;;;20.84;61.91;99095.01;2913035;80;20166;-62
2021/05/11 20:39:15;;;;;;;;;;;;;;;20.66;62.54;99088.99;2920273;80;20145;-61
2021/05/11 20:43:16;;;;;;;;;;;;;;;20.47;63.41;99085.43;2903785;80;20189;-61
2021/05/11 20:47:17;;;;;;;;;;;;;;;20.35;63.68;99076.67;2904531;82;20177;-62
2021/05/11 20:51:20;;;;;;;;;;;;;;;20.29;64.01;99076.22;2904520;82;20184;-62
2021/05/11 20:55:22;;;;;;;;;;;;;;;20.26;63.59;99072.61;2904295;82;20161;-63
2021/05/11 20:59:23;;;;;;;;;;;;;;;20.44;62.72;99070.48;2914581;81;20147;-62
2021/05/11 21:03:25;;;;;;;;;;;;;;;20.62;61.90;99064.28;2921098;81;20147;-62
2021/05/11 21:07:27;;;;;;;;;;;;;;;20.82;61.15;99061.95;2920968;81;20159;-61
2021/05/11 21:11:28;;;;;;;;;;;;;;;20.94;60.97;99057.47;2921364;81;20143;-62
2021/05/11 21:15:30;;;;;;;;;;;;;;;20.98;60.99;99050.56;2921162;81;20265;-63
2021/05/11 21:19:33;;;;;;;;;;;;;;;20.93;61.21;99047.71;2920961;81;20178;-63
2021/05/11 21:23:37;;;;;;;;;;;;;;;20.86;61.43;99040.72;2920873;81;20151;-61
2021/05/11 21:27:43;;;;;;;;;;;;;;;20.75;61.85;99040.91;2920999;81;20167;-62
2021/05/11 21:31:53;;;;;;;;;;;;;;;20.69;61.82;99040.75;2908759;80;20185;-62
2021/05/11 21:35:56;;;;;;;;;;;;;;;20.64;61.87;99027.09;2900223;80;20168;-62
2021/05/11 21:39:58;;;;;;;;;;;;;;;20.60;61.84;99031.27;2893806;80;20145;-61
2021/05/11 21:44:00;;;;;;;;;;;;;;;20.60;61.82;99032.63;2907571;81;20155;-61
2021/05/11 21:48:06;;;;;;;;;;;;;;;20.55;62.13;99029.26;2911770;81;20193;-62
2021/05/11 21:52:10;;;;;;;;;;;;;;;20.50;62.29;99029.61;2893306;81;20224;-61
2021/05/11 21:56:34;;;;;;;;;;;;;;;20.43;62.60;99029.67;2894479;81;20169;-60
2021/05/11 22:00:37;;;;;;;;;;;;;;;20.35;62.82;99028.08;2709309;86;20194;-61
2021/05/11 22:04:39;;;;;;;;;;;;;;;20.29;63.16;99028.97;2721484;85;20160;-62
2021/05/11 22:08:42;;;;;;;;;;;;;;;20.24;63.41;99028.77;2743269;85;20288;-62
2021/05/11 22:12:43;;;;;;;;;;;;;;;20.16;63.64;99016.91;2743552;85;20171;-60
2021/05/11 22:16:47;;;;;;;;;;;;;;;20.08;63.90;99017.50;2752953;85;20201;-60
2021/05/11 22:20:49;;;;;;;;;;;;;;;20.04;63.79;99017.61;2827900;83;20173;-60
2021/05/11 22:24:55;;;;;;;;;;;;;;;20.06;63.77;99020.95;2819610;83;20151;-61
2021/05/11 22:29:00;;;;;;;;;;;;;;;20.08;63.36;99014.80;2828420;83;20207;-60
2021/05/11 22:33:06;;;;;;;;;;;;;;;20.15;62.91;99016.10;2831442;83;20189;-61
2021/05/11 22:37:11;;;;;;;;;;;;;;;20.22;62.63;99012.81;2818752;83;20190;-62
2021/05/11 22:41:13;;;;;;;;;;;;;;;20.30;62.38;99016.27;2753640;86;20171;-60
2021/05/11 22:45:15;;;;;;;;;;;;;;;20.33;62.22;99005.87;2825211;83;20197;-61
2021/05/11 22:49:16;;;;;;;;;;;;;;;20.36;62.23;99018.92;2823939;83;20162;-61
2021/05/11 22:53:20;;;;;;;;;;;;;;;20.34;62.42;99022.38;2819077;83;20175;-61
2021/05/11 22:57:22;;;;;;;;;;;;;;;20.25;62.65;99020.47;2823626;83;20193;-61
2021/05/11 23:01:24;;;;;;;;;;;;;;;20.17;63.03;99015.86;2794986;85;20154;-62
2021/05/11 23:05:26;;;;;;;;;;;;;;;20.05;63.58;99016.59;2767004;85;20156;-61
2021/05/11 23:09:28;;;;;;;;;;;;;;;19.95;63.94;99024.34;2764333;85;20180;-61
2021/05/11 23:13:33;;;;;;;;;;;;;;;19.85;64.25;99019.39;2758080;85;20184;-61
2021/05/11 23:17:40;;;;;;;;;;;;;;;19.82;64.12;99020.64;2775698;85;20225;-62
2021/05/11 23:21:38;;;;;;;;;;;;;;;19.81;64.16;99020.34;2775536;85;20187;-61
2021/05/11 23:25:40;;;;;;;;;;;;;;;19.80;64.16;99026.78;2775543;85;20176;-61
2021/05/11 23:29:42;;;;;;;;;;;;;;;19.74;64.56;99023.61;2771010;85;20176;-62
2021/05/11 23:33:45;;;;;;;;;;;;;;;19.69;64.47;99030.19;2761849;85;20211;-62
2021/05/11 23:37:48;;;;;;;;;;;;;;;19.64;64.79;99027.28;2833373;84;20181;-61
2021/05/11 23:41:50;;;;;;;;;;;;;;;19.61;64.87;99024.52;2818084;84;20129;-61
2021/05/11 23:45:51;;;;;;;;;;;;;;;19.58;65.05;99021.42;2813448;84;20164;-62
2021/05/11 23:49:55;;;;;;;;;;;;;;;19.49;65.25;99016.80;2809443;84;20199;-62
2021/05/11 23:53:57;;;;;;;;;;;;;;;19.41;65.52;99008.43;2786082;85;20207;-61
2021/05/11 23:57:59;;;;;;;;;;;;;;;19.24;66.51;99006.76;2731179;87;20190;-61
